Destinations Málaga Airport

Málaga Airport (LEMG / AGP)

Flights to Málaga Airport

Flight number From ETE Dispatch
SPY-2210 EGFF Cardiff International Airport 02:45
SPY-428 EHGG Groningen Airport Eelde 03:25
SPY-4310 EIDW Dublin Airport 03:05

Flights from Málaga Airport

Flight number To ETE Dispatch
SPY-2211 EGFF Cardiff International Airport 02:45
SPY-429 EHGG Groningen Airport Eelde
SPY-4311 EIDW Dublin Airport 03:05
About

Málaga Airport facts

Málaga Airport is located in Malaga at an elevation of 16.2 meters or 53 feet.

Currently, Speedy Airlines serves 6 flights to and from Málaga Airport.

Detailed airport info

Route map

Weather

Current weather

METAR

METAR

Metar data retrieved Sunday, 21 July 2024 at 20:25 UTC

LEMG 212000Z 29009KT CAVOK 33/12 Q1010 NOSIG
Wind Temperature
9 kt 33c